EST,Max TemperatureF,Mean TemperatureF,Min TemperatureF,Max Dew PointF,MeanDew PointF,Min DewpointF,Max Humidity, Mean Humidity, Min Humidity, Max Sea Level PressureIn, Mean Sea Level PressureIn, Min Sea Level PressureIn, Max VisibilityMiles, Mean VisibilityMiles, Min VisibilityMiles, Max Wind SpeedMPH, Mean Wind SpeedMPH, Max Gust SpeedMPH,PrecipitationIn, CloudCover, Events, WindDirDegrees
2014-1-1,82,78,74,71,67,61,87,74,60,30.19,30.13,30.05,10,10,10,22,13,25,T,6,,114
2014-1-2,86,78,69,71,66,63,90,69,48,30.03,29.95,29.86,10,10,10,22,10,29,0.00,2,,208
2014-1-3,73,66,58,69,53,44,93,73,52,30.19,30.06,29.89,10,10,10,24,14,31,T,6,,343
2014-1-4,75,71,67,67,60,51,79,67,55,30.18,30.12,30.07,10,10,10,17,11,22,0.02,6,Rain,88
2014-1-5,80,75,69,70,68,66,100,84,67,30.05,30.00,29.95,10,8,2,23,7,29,2.09,6,Rain-Thunderstorm,175
2014-1-6,82,69,56,70,62,36,100,73,45,30.19,30.02,29.96,10,8,2,28,11,36,T,5,Rain,260
2014-1-7,58,53,48,48,40,26,77,58,38,30.31,30.26,30.21,10,10,10,23,14,29,T,8,Rain,330
2014-1-8,68,59,50,63,59,46,100,91,81,30.32,30.26,30.22,10,7,1,23,14,30,0.15,8,Rain,49
2014-1-9,74,71,67,70,68,63,100,91,81,30.25,30.19,30.14,10,6,0,30,18,33,2.98,8,Fog-Rain,86
2014-1-10,80,74,67,72,68,63,84,78,71,30.19,30.14,30.08,10,7,1,25,10,30,1.29,7,Rain,131
2014-1-11,84,79,73,72,70,68,90,80,69,30.11,30.05,29.96,10,10,7,20,11,25,T,5,Rain,173
2014-1-12,76,69,61,70,60,55,90,72,53,30.17,30.11,30.02,10,10,10,16,8,21,0.00,3,,329
2014-1-13,81,71,60,69,65,59,84,71,58,30.16,30.10,30.03,10,10,10,15,9,18,0.00,5,,122
2014-1-14,82,75,68,70,67,63,93,78,62,30.03,29.98,29.94,10,10,9,20,8,26,T,5,Rain,226
2014-1-15,71,64,57,64,58,49,93,73,52,30.02,29.97,29.94,10,8,1,16,7,21,0.19,7,Rain,286
2014-1-16,61,52,43,53,39,26,86,57,28,30.14,30.06,29.95,10,10,10,24,11,33,0.00,3,,304
2014-1-17,64,52,40,43,36,31,70,55,39,30.21,30.14,30.10,10,10,10,12,6,14,0.00,5,,300
2014-1-18,66,54,42,47,38,30,100,65,30,30.24,30.18,30.14,10,10,10,16,7,23,0.00,2,,304
2014-1-19,69,54,39,46,35,26,67,45,22,30.27,30.19,30.15,10,10,10,14,6,17,0.00,1,,290
2014-1-20,75,63,51,57,51,46,89,64,38,30.19,30.11,30.04,10,10,10,20,7,23,0.00,3,,254
2014-1-21,74,67,59,61,57,55,90,72,53,30.05,29.96,29.87,10,10,10,22,11,26,T,6,,234
2014-1-22,62,54,45,59,38,27,90,59,28,30.17,30.04,29.88,10,10,10,23,10,29,0.00,2,,297
2014-1-23,69,54,38,52,43,31,77,65,53,30.29,30.23,30.15,10,10,10,15,9,19,0.00,2,,337
2014-1-24,69,61,53,51,50,48,86,70,53,30.38,30.28,30.23,10,10,10,24,12,29,0.00,4,,340
2014-1-25,75,62,49,58,53,46,93,71,49,30.22,30.13,30.04,10,10,10,13,5,16,0.00,4,,264
2014-1-26,77,65,52,60,55,51,100,72,43,30.09,30.04,29.99,10,10,10,13,5,15,0.00,4,,189
2014-1-27,83,71,59,67,61,58,97,72,46,30.03,29.99,29.93,10,10,10,16,6,22,0.00,3,,230
2014-1-28,82,70,58,68,64,60,87,73,58,30.09,30.02,29.97,10,9,3,18,6,22,0.00,1,,184
2014-1-29,74,69,63,69,64,61,100,92,84,30.08,30.04,29.98,10,9,2,18,7,23,0.49,7,Rain,345
2014-1-30,67,66,64,65,64,62,100,97,93,30.12,30.06,30.02,10,4,0,16,7,22,2.72,8,Fog-Rain,337
2014-1-31,82,73,64,73,69,63,97,83,69,30.09,30.04,30.01,10,8,2,17,9,21,0.49,7,Rain,117